createdAt,value
2022-07-28T00:00:27.102Z,20.94
2022-07-28T00:02:54.654Z,20.90
2022-07-28T00:05:22.390Z,20.88
2022-07-28T00:07:53.023Z,20.85
2022-07-28T00:10:20.625Z,20.82
2022-07-28T00:12:48.474Z,20.80
2022-07-28T00:15:18.305Z,20.78
2022-07-28T00:17:46.397Z,20.76
2022-07-28T00:20:14.412Z,20.76
2022-07-28T00:22:44.542Z,20.73
2022-07-28T00:25:12.646Z,20.68
2022-07-28T00:27:40.890Z,20.62
2022-07-28T00:30:09.014Z,20.62
2022-07-28T00:32:37.706Z,20.65
2022-07-28T00:35:08.055Z,20.74
2022-07-28T00:37:38.646Z,20.78
2022-07-28T00:40:09.108Z,20.82
2022-07-28T00:42:36.668Z,20.82
2022-07-28T00:45:04.722Z,20.79
2022-07-28T00:47:33.663Z,20.77
2022-07-28T00:50:02.964Z,20.73
2022-07-28T00:52:33.385Z,20.65
2022-07-28T00:55:07.089Z,20.58
2022-07-28T00:57:35.263Z,20.55
2022-07-28T01:00:03.954Z,20.57
2022-07-28T01:02:32.432Z,20.53
2022-07-28T01:04:59.914Z,20.52
2022-07-28T01:07:42.730Z,20.48
2022-07-28T01:10:18.705Z,20.48
2022-07-28T01:13:06.354Z,20.48
2022-07-28T01:15:40.051Z,20.47
2022-07-28T01:18:26.699Z,20.41
2022-07-28T01:21:02.926Z,20.37
2022-07-28T01:23:33.570Z,20.35
2022-07-28T01:26:37.975Z,20.29
2022-07-28T01:29:46.414Z,20.22
2022-07-28T01:32:17.376Z,20.16
2022-07-28T01:34:52.713Z,20.12
2022-07-28T01:37:26.573Z,20.10
2022-07-28T01:39:56.916Z,20.08
2022-07-28T01:42:28.253Z,20.08
2022-07-28T01:44:56.283Z,20.09
2022-07-28T01:47:29.365Z,20.09
2022-07-28T01:50:00.615Z,20.06
2022-07-28T01:52:29.407Z,20.04
2022-07-28T01:54:58.436Z,20.02
2022-07-28T01:57:26.800Z,20.02
2022-07-28T01:59:54.722Z,20.00
2022-07-28T02:02:25.125Z,19.98
2022-07-28T02:04:53.692Z,19.99
2022-07-28T02:07:22.478Z,20.05
2022-07-28T02:09:53.422Z,20.08
2022-07-28T02:12:21.792Z,20.10
2022-07-28T02:14:50.688Z,20.13
2022-07-28T02:17:30.771Z,20.14
2022-07-28T02:19:58.887Z,20.16
2022-07-28T02:22:27.972Z,20.18
2022-07-28T02:24:55.853Z,20.21
2022-07-28T02:27:51.112Z,20.32
2022-07-28T02:30:25.726Z,20.55
2022-07-28T02:33:11.845Z,20.87
2022-07-28T02:35:53.942Z,21.45
2022-07-28T02:38:29.021Z,22.24
2022-07-28T02:41:10.997Z,22.98
2022-07-28T02:43:45.799Z,23.62
2022-07-28T02:46:20.400Z,24.26
2022-07-28T02:48:50.955Z,24.79
2022-07-28T02:51:19.252Z,25.30
2022-07-28T02:53:47.029Z,25.98
2022-07-28T02:56:16.671Z,26.71
2022-07-28T02:58:45.906Z,27.42
2022-07-28T03:01:14.613Z,27.53
2022-07-28T03:03:44.125Z,27.88
2022-07-28T03:06:12.098Z,27.94
2022-07-28T03:08:39.949Z,28.27
2022-07-28T03:11:13.220Z,28.74
2022-07-28T03:13:43.724Z,29.14
2022-07-28T03:16:11.346Z,29.78
2022-07-28T03:18:38.710Z,30.32
2022-07-28T03:21:06.880Z,31.21
2022-07-28T03:23:40.765Z,31.91
2022-07-28T03:26:23.544Z,32.08
2022-07-28T03:28:53.500Z,32.27
2022-07-28T03:31:22.211Z,32.42
2022-07-28T03:33:50.008Z,32.46
2022-07-28T03:36:25.147Z,32.81
2022-07-28T03:38:59.361Z,33.21
2022-07-28T03:41:27.703Z,33.52
2022-07-28T03:43:55.848Z,33.97
2022-07-28T03:46:23.529Z,34.38
2022-07-28T03:48:51.933Z,34.74
2022-07-28T03:51:20.071Z,35.31
2022-07-28T03:53:47.592Z,35.43
2022-07-28T03:56:15.800Z,35.64
2022-07-28T03:58:43.785Z,35.88
2022-07-28T04:01:14.145Z,35.69
2022-07-28T04:03:44.259Z,35.59
2022-07-28T04:06:15.760Z,35.67
2022-07-28T04:08:44.258Z,35.79
2022-07-28T04:11:15.811Z,35.92
2022-07-28T04:13:44.893Z,36.28
2022-07-28T04:16:12.501Z,36.69
2022-07-28T04:18:42.785Z,36.40
2022-07-28T04:21:10.717Z,36.49
2022-07-28T04:23:38.115Z,36.58
2022-07-28T04:26:06.244Z,36.97
2022-07-28T04:28:34.308Z,37.17
2022-07-28T04:31:03.023Z,37.05
2022-07-28T04:33:31.144Z,36.75
2022-07-28T04:35:58.634Z,36.73
2022-07-28T04:38:26.638Z,36.55
2022-07-28T04:40:54.088Z,36.44
2022-07-28T04:43:22.921Z,36.34
2022-07-28T04:45:54.626Z,36.33
2022-07-28T04:48:25.826Z,36.90
2022-07-28T04:50:53.983Z,37.17
2022-07-28T04:53:22.865Z,36.80
2022-07-28T04:55:53.432Z,37.15
2022-07-28T04:58:23.306Z,37.44
2022-07-28T05:00:51.369Z,38.57
2022-07-28T05:03:23.447Z,38.79
2022-07-28T05:05:54.662Z,39.22
2022-07-28T05:08:25.692Z,38.64
2022-07-28T05:10:56.302Z,38.03
2022-07-28T05:13:24.187Z,37.87
2022-07-28T05:15:57.148Z,38.22
2022-07-28T05:18:26.022Z,38.50
2022-07-28T05:20:55.756Z,38.32
2022-07-28T05:23:23.214Z,38.16
2022-07-28T05:25:52.371Z,38.44
2022-07-28T05:28:19.888Z,38.91
2022-07-28T05:30:48.151Z,38.77
2022-07-28T05:33:16.123Z,39.11
2022-07-28T05:35:52.610Z,39.10
2022-07-28T05:38:20.703Z,39.25
2022-07-28T05:40:49.492Z,39.24
2022-07-28T05:46:05.886Z,38.58
2022-07-28T05:48:34.073Z,38.92
2022-07-28T05:51:03.384Z,39.12
2022-07-28T05:53:31.223Z,39.62
2022-07-28T05:56:00.915Z,39.63
2022-07-28T05:58:31.164Z,39.26
2022-07-28T06:01:00.636Z,39.02
2022-07-28T06:03:32.285Z,39.25
2022-07-28T06:06:14.592Z,39.25
2022-07-28T06:08:47.778Z,39.69
2022-07-28T06:11:22.393Z,39.38
2022-07-28T06:13:58.998Z,39.01
2022-07-28T06:16:42.346Z,38.66
2022-07-28T06:19:10.100Z,38.89
2022-07-28T06:21:37.707Z,38.63
2022-07-28T06:24:07.929Z,38.57
2022-07-28T06:26:43.680Z,38.99
2022-07-28T06:29:13.098Z,38.95
2022-07-28T06:31:44.718Z,38.72
2022-07-28T06:34:16.213Z,38.86
2022-07-28T06:36:44.587Z,38.70
2022-07-28T06:39:16.201Z,38.65
2022-07-28T06:41:50.674Z,38.55
2022-07-28T06:44:23.114Z,38.59
2022-07-28T06:46:52.365Z,38.75
2022-07-28T06:49:20.634Z,39.07
2022-07-28T06:51:48.884Z,39.04
2022-07-28T06:54:21.449Z,38.98
2022-07-28T06:56:50.479Z,39.00
2022-07-28T06:59:18.243Z,39.33
2022-07-28T07:01:47.249Z,39.27
2022-07-28T07:04:15.168Z,38.74
2022-07-28T07:06:44.553Z,38.42
2022-07-28T07:09:12.281Z,38.40
2022-07-28T07:11:41.648Z,38.15
2022-07-28T07:14:09.424Z,37.82
2022-07-28T07:16:38.532Z,37.16
2022-07-28T07:19:12.594Z,36.50
2022-07-28T07:21:44.629Z,35.93
2022-07-28T07:24:14.742Z,35.40
2022-07-28T07:26:42.945Z,34.88
2022-07-28T07:29:11.456Z,34.56
2022-07-28T07:31:40.048Z,34.08
2022-07-28T07:34:08.960Z,33.86
2022-07-28T07:36:37.185Z,33.57
2022-07-28T07:39:06.860Z,33.17
2022-07-28T07:41:34.659Z,33.17
2022-07-28T07:44:02.321Z,33.11
2022-07-28T07:46:30.322Z,33.02
2022-07-28T07:48:58.378Z,32.97
2022-07-28T07:51:26.121Z,32.80
2022-07-28T07:53:55.016Z,32.64
2022-07-28T07:56:22.976Z,32.65
2022-07-28T07:58:56.852Z,32.76
2022-07-28T08:01:25.364Z,32.80
2022-07-28T08:03:53.727Z,32.83
2022-07-28T08:06:26.321Z,32.82
2022-07-28T08:08:55.174Z,32.62
2022-07-28T08:11:25.901Z,32.58
2022-07-28T08:13:53.936Z,32.53
2022-07-28T08:16:24.962Z,32.48
2022-07-28T08:18:53.956Z,32.35
2022-07-28T08:21:22.503Z,32.35
2022-07-28T08:23:51.075Z,32.35
2022-07-28T08:26:19.606Z,32.49
2022-07-28T08:28:47.542Z,32.44
2022-07-28T08:31:17.896Z,32.43
2022-07-28T08:33:53.709Z,32.39
2022-07-28T08:36:22.863Z,32.11
2022-07-28T08:38:54.405Z,32.05
2022-07-28T08:41:42.029Z,32.13
2022-07-28T08:44:12.263Z,32.33
2022-07-28T08:46:43.155Z,32.26
2022-07-28T08:49:14.946Z,32.36
2022-07-28T08:51:45.177Z,32.53
2022-07-28T08:54:17.119Z,32.54
2022-07-28T08:56:48.120Z,32.41
2022-07-28T08:59:16.196Z,32.27
2022-07-28T09:01:50.641Z,32.48
2022-07-28T09:04:21.462Z,32.41
2022-07-28T09:06:52.481Z,32.29
2022-07-28T09:09:21.751Z,32.46
2022-07-28T09:11:53.763Z,32.78
2022-07-28T09:14:26.850Z,32.99
2022-07-28T09:16:55.263Z,33.17
2022-07-28T09:19:24.145Z,33.18
2022-07-28T09:21:56.911Z,32.90
2022-07-28T09:24:40.539Z,32.97
2022-07-28T09:27:12.288Z,33.07
2022-07-28T09:29:45.176Z,33.12
2022-07-28T09:32:19.031Z,33.23
2022-07-28T09:34:51.869Z,33.32
2022-07-28T09:37:27.712Z,33.43
2022-07-28T09:40:03.905Z,33.63
2022-07-28T09:42:46.488Z,34.07
2022-07-28T09:45:23.431Z,34.26
2022-07-28T09:48:11.959Z,33.98
2022-07-28T09:50:42.297Z,33.67
2022-07-28T09:53:32.532Z,33.43
2022-07-28T10:27:05.861Z,33.48
2022-07-28T10:29:34.299Z,33.45
2022-07-28T10:32:05.976Z,33.62
2022-07-28T10:34:35.735Z,33.55
2022-07-28T10:37:08.059Z,33.40
2022-07-28T10:39:42.426Z,33.45
2022-07-28T10:42:13.236Z,33.62
2022-07-28T10:44:43.635Z,33.73
2022-07-28T10:47:18.461Z,33.96
2022-07-28T10:49:49.116Z,34.23
2022-07-28T10:52:46.283Z,34.42
2022-07-28T10:55:52.491Z,34.59
2022-07-28T10:58:36.880Z,34.23
2022-07-28T11:01:06.414Z,33.39
2022-07-28T11:03:40.265Z,33.07
2022-07-28T11:06:27.028Z,33.11
2022-07-28T11:09:00.834Z,33.40
2022-07-28T11:11:50.289Z,33.59
2022-07-28T11:14:37.090Z,33.77
2022-07-28T11:17:10.075Z,33.69
2022-07-28T11:20:16.428Z,33.63
2022-07-28T11:22:34.199Z,33.78
2022-07-28T11:25:18.667Z,33.67
2022-07-28T11:27:53.222Z,33.70
2022-07-28T11:30:36.177Z,33.65
2022-07-28T11:33:07.217Z,33.45
2022-07-28T11:35:42.371Z,33.02
2022-07-28T11:38:12.644Z,32.59
2022-07-28T11:40:43.173Z,32.37
2022-07-28T11:43:37.660Z,32.34
2022-07-28T11:46:09.988Z,32.16
2022-07-28T11:48:41.762Z,31.92
2022-07-28T11:51:14.632Z,31.80
2022-07-28T11:53:48.185Z,31.87
2022-07-28T11:56:38.165Z,31.96
2022-07-28T11:59:16.615Z,31.96
2022-07-28T12:01:56.307Z,32.06
2022-07-28T12:04:27.967Z,32.26
2022-07-28T12:06:56.162Z,32.44
2022-07-28T12:09:41.116Z,32.67
2022-07-28T12:12:10.290Z,32.99
2022-07-28T12:14:39.749Z,33.14
2022-07-28T12:17:09.702Z,33.03
2022-07-28T12:19:40.833Z,32.97
2022-07-28T12:22:16.497Z,33.00
2022-07-28T12:24:57.133Z,32.98
2022-07-28T12:27:29.379Z,32.88
2022-07-28T12:30:00.455Z,32.93
2022-07-28T12:32:36.356Z,33.10
2022-07-28T12:35:04.459Z,33.26
2022-07-28T12:37:36.031Z,33.43
2022-07-28T12:40:15.275Z,33.38
2022-07-28T12:42:42.942Z,33.22
2022-07-28T12:45:10.671Z,32.95
2022-07-28T12:47:42.010Z,32.75
2022-07-28T12:50:18.099Z,32.73
2022-07-28T12:53:04.744Z,32.63
2022-07-28T12:55:33.412Z,32.62
2022-07-28T12:58:03.475Z,32.84
2022-07-28T13:00:34.238Z,32.96
2022-07-28T13:03:22.157Z,33.01
2022-07-28T13:06:05.475Z,33.18
2022-07-28T13:08:55.256Z,33.49
2022-07-28T13:11:47.523Z,33.59
2022-07-28T13:14:16.108Z,33.60
2022-07-28T13:16:44.661Z,33.66
2022-07-28T13:19:24.043Z,33.62
2022-07-28T13:22:01.537Z,33.29
2022-07-28T13:24:32.628Z,33.20
2022-07-28T13:27:01.767Z,33.25
2022-07-28T13:29:32.855Z,33.18
2022-07-28T13:32:01.300Z,33.00
2022-07-28T13:34:28.905Z,33.08
2022-07-28T13:36:57.188Z,32.94
2022-07-28T13:39:25.195Z,32.76
2022-07-28T13:41:58.516Z,32.72
2022-07-28T13:44:30.964Z,32.96
2022-07-28T13:46:59.680Z,33.12
2022-07-28T13:49:31.826Z,33.36
2022-07-28T13:52:01.390Z,33.31
2022-07-28T13:54:29.159Z,33.27
2022-07-28T13:56:59.579Z,33.27
2022-07-28T13:59:26.987Z,33.35
2022-07-28T14:01:57.898Z,33.47
2022-07-28T14:04:25.706Z,33.55
2022-07-28T14:06:54.859Z,33.64
2022-07-28T14:09:22.410Z,33.72
2022-07-28T14:11:53.972Z,33.81
2022-07-28T14:14:25.122Z,33.77
2022-07-28T14:16:55.284Z,33.69
2022-07-28T14:19:38.917Z,33.65
2022-07-28T14:22:13.855Z,33.52
2022-07-28T14:24:43.004Z,33.52
2022-07-28T14:27:11.500Z,33.55
2022-07-28T14:29:39.726Z,33.57
2022-07-28T14:32:10.947Z,33.56
2022-07-28T14:34:40.277Z,33.57
2022-07-28T14:37:10.817Z,33.47
2022-07-28T14:39:38.785Z,33.45
2022-07-28T14:42:07.450Z,33.36
2022-07-28T14:44:35.818Z,33.31
2022-07-28T14:47:07.501Z,33.16
2022-07-28T14:49:36.508Z,32.85
2022-07-28T14:52:04.559Z,32.58
2022-07-28T14:54:33.809Z,32.53
2022-07-28T14:57:01.454Z,32.60
2022-07-28T14:59:29.522Z,32.59
2022-07-28T15:01:57.999Z,32.44
2022-07-28T15:04:27.156Z,32.38
2022-07-28T15:06:55.013Z,32.29
2022-07-28T15:09:27.981Z,32.25
2022-07-28T15:12:02.942Z,32.13
2022-07-28T15:14:30.771Z,31.96
2022-07-28T15:17:00.670Z,31.88
2022-07-28T15:19:35.851Z,31.67
2022-07-28T15:22:04.227Z,31.39
2022-07-28T15:24:33.518Z,31.11
2022-07-28T15:27:02.426Z,31.05
2022-07-28T15:29:35.447Z,30.95
2022-07-28T15:32:06.758Z,30.86
2022-07-28T15:34:38.658Z,30.97
2022-07-28T15:37:08.769Z,31.03
2022-07-28T15:39:43.246Z,30.91
2022-07-28T15:42:12.902Z,30.97
2022-07-28T15:44:40.537Z,30.81
2022-07-28T15:47:08.607Z,30.73
2022-07-28T15:49:36.857Z,30.57
2022-07-28T15:52:04.680Z,30.53
2022-07-28T15:54:37.883Z,30.34
2022-07-28T16:05:51.324Z,30.18
2022-07-28T16:11:27.288Z,30.07
2022-07-28T16:14:25.910Z,30.17
2022-07-28T16:20:02.767Z,30.40
2022-07-28T16:25:30.999Z,30.06
2022-07-28T16:34:03.189Z,29.50
2022-07-28T16:36:40.177Z,29.37
2022-07-28T16:39:11.418Z,29.26
2022-07-28T16:44:29.995Z,28.83
2022-07-28T17:19:32.956Z,27.85
2022-07-28T17:22:01.902Z,27.73
2022-07-28T17:24:34.266Z,27.58
2022-07-28T17:29:49.346Z,27.41
2022-07-28T17:32:17.688Z,27.33
2022-07-28T17:34:45.462Z,27.27
2022-07-28T17:37:19.269Z,27.24
2022-07-28T17:39:53.411Z,27.22
2022-07-28T17:42:21.274Z,27.18
2022-07-28T17:44:53.417Z,27.11
2022-07-28T17:47:35.992Z,27.08
2022-07-28T17:50:04.852Z,27.04
2022-07-28T17:52:35.755Z,26.98
2022-07-28T17:55:24.103Z,26.99
2022-07-28T17:57:55.117Z,26.97
2022-07-28T18:00:23.779Z,26.94
2022-07-28T18:03:11.132Z,26.89
2022-07-28T18:05:43.558Z,26.84
2022-07-28T18:08:11.829Z,26.81
2022-07-28T18:10:52.830Z,26.78
2022-07-28T18:26:09.014Z,26.57
2022-07-28T18:28:50.994Z,26.50
2022-07-28T18:34:25.360Z,26.40
2022-07-28T18:37:02.012Z,26.37
2022-07-28T18:39:44.224Z,26.33
2022-07-28T18:48:21.289Z,26.30
2022-07-28T18:59:51.948Z,26.15
2022-07-28T19:02:23.070Z,26.09
2022-07-28T19:05:23.403Z,26.02
2022-07-28T19:07:53.110Z,26.01
2022-07-28T19:10:24.091Z,26.03
2022-07-28T19:13:12.983Z,25.99
2022-07-28T19:15:44.502Z,25.96
2022-07-28T19:18:20.719Z,25.93
2022-07-28T19:20:48.469Z,25.92
2022-07-28T19:23:16.087Z,25.89
2022-07-28T19:25:51.777Z,25.85
2022-07-28T19:28:19.356Z,25.85
2022-07-28T19:31:00.788Z,25.85
2022-07-28T19:33:43.833Z,25.83
2022-07-28T19:36:14.260Z,25.78
2022-07-28T19:38:42.216Z,25.75
2022-07-28T19:41:10.801Z,25.72
2022-07-28T19:43:38.234Z,25.69
2022-07-28T19:46:06.260Z,25.68
2022-07-28T19:48:37.391Z,25.65
2022-07-28T19:51:05.228Z,25.61
2022-07-28T19:53:35.715Z,25.57
2022-07-28T19:56:09.037Z,25.55
2022-07-28T19:58:37.559Z,25.53
2022-07-28T20:01:06.299Z,25.51
2022-07-28T20:04:00.564Z,25.48
2022-07-28T20:06:25.314Z,25.43
2022-07-28T20:09:00.389Z,25.40
2022-07-28T20:11:36.486Z,25.37
2022-07-28T20:14:04.253Z,25.35
2022-07-28T20:16:33.262Z,25.34
2022-07-28T20:19:01.177Z,25.32
2022-07-28T20:21:29.220Z,25.31
2022-07-28T20:24:06.746Z,25.31
2022-07-28T20:26:34.357Z,25.32
2022-07-28T20:29:02.009Z,25.29
2022-07-28T20:31:30.082Z,25.29
2022-07-28T20:33:58.085Z,25.27
2022-07-28T20:36:29.643Z,25.23
2022-07-28T20:38:57.651Z,25.20
2022-07-28T20:41:25.309Z,25.17
2022-07-28T20:44:27.288Z,25.16
2022-07-28T20:46:49.980Z,25.10
2022-07-28T20:49:17.603Z,25.09
2022-07-28T20:51:50.842Z,25.06
2022-07-28T20:54:22.504Z,25.00
2022-07-28T20:56:50.622Z,24.98
2022-07-28T20:59:18.788Z,24.98
2022-07-28T21:01:46.411Z,24.96
2022-07-28T21:04:14.235Z,24.96
2022-07-28T21:06:51.064Z,24.95
2022-07-28T21:09:21.572Z,24.92
2022-07-28T21:11:49.633Z,24.88
2022-07-28T21:14:17.831Z,24.82
2022-07-28T21:16:45.435Z,24.77
2022-07-28T21:19:16.892Z,24.73
2022-07-28T21:21:45.500Z,24.65
2022-07-28T21:24:14.859Z,24.59
2022-07-28T21:26:43.435Z,24.53
2022-07-28T21:32:04.810Z,24.44
2022-07-28T21:34:32.090Z,24.41
2022-07-28T21:37:06.768Z,24.34
2022-07-28T21:39:35.161Z,24.31
2022-07-28T21:42:05.794Z,24.25
2022-07-28T21:44:38.333Z,24.20
2022-07-28T21:47:06.334Z,24.15
2022-07-28T21:49:33.731Z,24.08
2022-07-28T21:52:01.483Z,24.01
2022-07-28T21:54:29.156Z,23.98
2022-07-28T21:56:57.442Z,23.94
2022-07-28T21:59:24.831Z,23.86
2022-07-28T22:01:52.726Z,23.83
2022-07-28T22:04:21.049Z,23.78
2022-07-28T22:06:49.311Z,23.76
2022-07-28T22:09:16.788Z,23.71
2022-07-28T22:11:48.200Z,23.72
2022-07-28T22:14:16.245Z,23.67
2022-07-28T22:16:46.354Z,23.67
2022-07-28T22:19:15.607Z,23.60
2022-07-28T22:21:42.944Z,23.58
2022-07-28T22:24:10.371Z,23.55
2022-07-28T22:26:40.553Z,23.52
2022-07-28T22:29:08.990Z,23.50
2022-07-28T22:31:36.513Z,23.46
2022-07-28T22:34:04.239Z,23.41
2022-07-28T22:36:32.268Z,23.36
2022-07-28T22:39:00.371Z,23.32
2022-07-28T22:41:27.801Z,23.31
2022-07-28T22:43:55.339Z,23.24
2022-07-28T22:46:22.834Z,23.20
2022-07-28T22:48:50.278Z,23.14
2022-07-28T22:51:18.409Z,23.12
2022-07-28T22:53:45.771Z,23.11
2022-07-28T22:56:25.853Z,23.08
2022-07-28T22:58:54.205Z,23.01
2022-07-28T23:01:23.312Z,23.01
2022-07-28T23:03:52.214Z,22.97
2022-07-28T23:06:21.876Z,22.93
2022-07-28T23:08:49.354Z,22.92
2022-07-28T23:11:19.055Z,22.87
2022-07-28T23:13:46.644Z,22.86
2022-07-28T23:16:16.245Z,22.81
2022-07-28T23:18:44.967Z,22.80
2022-07-28T23:21:12.822Z,22.79
2022-07-28T23:23:41.583Z,22.78
2022-07-28T23:26:09.468Z,22.76
2022-07-28T23:28:37.387Z,22.77
2022-07-28T23:31:07.067Z,22.72
2022-07-28T23:33:55.855Z,22.73
2022-07-28T23:36:26.646Z,22.70
2022-07-28T23:38:57.143Z,22.66
2022-07-28T23:41:24.710Z,22.65
2022-07-28T23:43:52.432Z,22.63
2022-07-28T23:46:20.071Z,22.64
2022-07-28T23:48:47.723Z,22.63
2022-07-28T23:51:15.164Z,22.62
2022-07-28T23:53:43.714Z,22.59
2022-07-28T23:56:11.390Z,22.58
2022-07-28T23:58:38.664Z,22.62
